createdAt,value
2019-02-08T00:00:41.757Z,40.03
2019-02-08T00:03:14.233Z,38.37
2019-02-08T00:05:46.794Z,39.53
2019-02-08T00:08:19.208Z,40.40
2019-02-08T00:10:51.498Z,33.87
2019-02-08T00:13:24.192Z,39.57
2019-02-08T00:15:56.989Z,46.17
2019-02-08T00:18:32.292Z,37.23
2019-02-08T00:21:05.374Z,38.00
2019-02-08T00:23:37.677Z,35.83
2019-02-08T00:26:10.425Z,39.83
2019-02-08T00:28:42.832Z,38.00
2019-02-08T00:31:15.167Z,33.67
2019-02-08T00:33:48.019Z,38.53
2019-02-08T00:36:20.354Z,41.70
2019-02-08T00:38:52.874Z,34.20
2019-02-08T00:41:25.271Z,37.73
2019-02-08T00:43:57.521Z,37.57
2019-02-08T00:46:30.059Z,37.17
2019-02-08T00:49:02.415Z,36.50
2019-02-08T00:51:34.680Z,33.50
2019-02-08T00:54:07.265Z,39.83
2019-02-08T00:56:39.533Z,34.77
2019-02-08T00:59:12.213Z,38.80
2019-02-08T01:01:44.491Z,36.97
2019-02-08T01:04:17.879Z,40.43
2019-02-08T01:06:50.122Z,36.23
2019-02-08T01:09:22.414Z,35.90
2019-02-08T01:11:54.934Z,38.97
2019-02-08T01:14:27.387Z,39.03
2019-02-08T01:16:59.753Z,37.87
2019-02-08T01:19:32.083Z,33.47
2019-02-08T01:22:05.589Z,35.83
2019-02-08T01:24:42.520Z,40.73
2019-02-08T01:27:14.792Z,30.10
2019-02-08T01:29:48.175Z,37.47
2019-02-08T01:32:20.609Z,38.13
2019-02-08T01:34:52.933Z,44.53
2019-02-08T01:37:25.172Z,36.37
2019-02-08T01:39:57.411Z,34.17
2019-02-08T01:42:29.796Z,32.30
2019-02-08T01:45:02.818Z,33.93
2019-02-08T01:47:36.651Z,38.37
2019-02-08T01:50:12.890Z,35.67
2019-02-08T01:52:45.234Z,35.30
2019-02-08T01:55:18.098Z,34.53
2019-02-08T01:57:52.059Z,35.40
2019-02-08T02:00:26.817Z,31.23
2019-02-08T02:02:59.269Z,37.13
2019-02-08T02:05:31.903Z,42.67
2019-02-08T02:08:04.787Z,39.73
2019-02-08T02:10:40.587Z,34.10
2019-02-08T02:13:13.947Z,35.47
2019-02-08T02:15:47.198Z,32.73
2019-02-08T02:18:19.519Z,35.20
2019-02-08T02:20:53.360Z,33.83
2019-02-08T02:23:25.745Z,29.87
2019-02-08T02:25:58.172Z,37.10
2019-02-08T02:28:30.616Z,33.77
2019-02-08T02:31:02.962Z,36.10
2019-02-08T02:33:35.449Z,34.30
2019-02-08T02:36:07.861Z,33.67
2019-02-08T02:38:40.162Z,34.13
2019-02-08T02:41:12.529Z,29.90
2019-02-08T02:43:44.785Z,36.07
2019-02-08T02:46:17.089Z,32.27
2019-02-08T02:48:49.433Z,33.27
2019-02-08T02:51:21.695Z,33.23
2019-02-08T02:53:53.979Z,31.63
2019-02-08T02:56:27.335Z,35.53
2019-02-08T02:58:59.659Z,38.40
2019-02-08T03:01:31.903Z,33.50
2019-02-08T03:04:04.717Z,28.47
2019-02-08T03:06:37.746Z,32.20
2019-02-08T03:09:10.602Z,28.07
2019-02-08T03:11:42.953Z,36.27
2019-02-08T03:14:15.320Z,34.33
2019-02-08T03:16:47.582Z,31.63
2019-02-08T03:19:19.840Z,32.10
2019-02-08T03:21:52.193Z,30.77
2019-02-08T03:24:24.453Z,33.07
2019-02-08T03:26:56.837Z,33.23
2019-02-08T03:29:29.177Z,30.90
2019-02-08T03:32:01.416Z,33.77
2019-02-08T03:34:33.715Z,32.73
2019-02-08T03:37:05.987Z,31.73
2019-02-08T03:39:39.392Z,28.53
2019-02-08T03:42:11.624Z,34.50
2019-02-08T03:44:43.963Z,28.83
2019-02-08T03:47:16.223Z,34.13
2019-02-08T03:49:48.544Z,34.00
2019-02-08T03:52:20.894Z,28.63
2019-02-08T03:54:53.150Z,32.60
2019-02-08T03:57:25.379Z,37.60
2019-02-08T03:59:57.726Z,33.53
2019-02-08T04:02:30.100Z,31.23
2019-02-08T04:05:02.544Z,33.63
2019-02-08T04:07:34.864Z,31.90
2019-02-08T04:10:08.845Z,33.57
2019-02-08T04:12:41.236Z,32.47
2019-02-08T04:15:16.685Z,31.43
2019-02-08T04:17:49.250Z,29.00
2019-02-08T04:20:25.207Z,32.80
2019-02-08T04:22:58.537Z,26.13
2019-02-08T04:25:30.897Z,29.27
2019-02-08T04:28:03.158Z,34.73
2019-02-08T04:30:35.785Z,31.67
2019-02-08T04:33:08.138Z,32.37
2019-02-08T04:35:40.413Z,31.17
2019-02-08T04:38:12.688Z,33.00
2019-02-08T04:40:44.984Z,30.53
2019-02-08T04:43:17.330Z,34.20
2019-02-08T04:45:49.595Z,30.73
2019-02-08T04:48:21.942Z,32.60
2019-02-08T04:50:54.376Z,30.63
2019-02-08T04:53:26.655Z,28.97
2019-02-08T04:55:59.095Z,36.27
2019-02-08T04:58:35.584Z,29.53
2019-02-08T05:01:05.967Z,29.70
2019-02-08T05:03:38.349Z,33.13
2019-02-08T05:06:10.665Z,29.07
2019-02-08T05:08:43.082Z,31.03
2019-02-08T05:11:15.475Z,26.57
2019-02-08T05:13:47.852Z,33.17
2019-02-08T05:16:20.314Z,31.73
2019-02-08T05:18:52.630Z,33.70
2019-02-08T05:21:24.979Z,25.67
2019-02-08T05:23:58.409Z,33.50
2019-02-08T05:26:30.765Z,28.07
2019-02-08T05:29:03.011Z,28.13
2019-02-08T05:31:35.336Z,27.77
2019-02-08T05:34:07.749Z,32.47
2019-02-08T05:36:40.070Z,29.30
2019-02-08T05:39:12.401Z,29.57
2019-02-08T05:41:44.702Z,35.47
2019-02-08T05:44:17.091Z,28.27
2019-02-08T05:46:49.412Z,32.70
2019-02-08T05:49:21.696Z,38.37
2019-02-08T05:51:54.346Z,35.20
2019-02-08T05:54:26.747Z,31.17
2019-02-08T05:56:59.040Z,30.27
2019-02-08T05:59:31.330Z,33.53
2019-02-08T06:02:03.668Z,34.50
2019-02-08T06:04:36.074Z,30.83
2019-02-08T06:07:08.387Z,38.97
2019-02-08T06:09:40.719Z,37.83
2019-02-08T06:12:13.001Z,35.87
2019-02-08T06:14:45.394Z,44.20
2019-02-08T06:17:17.818Z,44.23
2019-02-08T06:19:50.102Z,40.27
2019-02-08T06:22:22.472Z,45.43
2019-02-08T06:25:03.301Z,37.37
2019-02-08T06:27:37.642Z,37.87
2019-02-08T06:30:14.940Z,38.03
2019-02-08T06:32:48.794Z,41.00
2019-02-08T06:35:23.376Z,44.23
2019-02-08T06:37:56.518Z,40.90
2019-02-08T06:40:30.833Z,40.47
2019-02-08T06:43:04.940Z,48.40
2019-02-08T06:45:37.534Z,39.57
2019-02-08T06:48:10.918Z,44.00
2019-02-08T06:50:43.286Z,41.33
2019-02-08T06:53:15.617Z,43.90
2019-02-08T06:55:53.848Z,63.10
2019-02-08T06:58:45.946Z,50.93
2019-02-08T07:01:35.820Z,51.70
2019-02-08T07:04:21.928Z,56.07
2019-02-08T07:07:05.736Z,50.77
2019-02-08T07:09:57.324Z,43.27
2019-02-08T07:12:51.698Z,41.70
2019-02-08T07:15:41.590Z,43.43
2019-02-08T07:18:19.658Z,41.57
2019-02-08T07:21:06.192Z,40.37
2019-02-08T07:23:53.687Z,41.37
2019-02-08T07:26:54.237Z,44.07
2019-02-08T07:29:35.798Z,43.87
2019-02-08T07:32:33.915Z,39.47
2019-02-08T07:35:16.184Z,45.10
2019-02-08T07:38:13.835Z,45.17
2019-02-08T07:41:05.554Z,50.80
2019-02-08T07:43:56.927Z,47.57
2019-02-08T07:47:06.725Z,46.83
2019-02-08T07:50:05.981Z,49.03
2019-02-08T07:52:52.021Z,45.37
2019-02-08T07:55:40.261Z,44.30
2019-02-08T07:58:32.188Z,51.00
2019-02-08T08:01:33.460Z,39.70
2019-02-08T08:04:26.921Z,37.07
2019-02-08T08:07:17.182Z,37.13
2019-02-08T08:10:08.941Z,43.97
2019-02-08T08:13:14.453Z,37.10
2019-02-08T08:16:05.080Z,38.00
2019-02-08T08:18:56.758Z,36.30
2019-02-08T08:21:47.108Z,37.20
2019-02-08T08:24:35.184Z,35.23
2019-02-08T08:27:16.403Z,33.00
2019-02-08T08:30:15.879Z,34.27
2019-02-08T08:33:17.473Z,35.55
2019-02-08T08:36:16.538Z,34.17
2019-02-08T08:39:45.085Z,37.13
2019-02-08T08:43:03.420Z,35.40
2019-02-08T08:46:21.166Z,34.50
2019-02-08T08:49:40.896Z,38.92
2019-02-08T08:52:47.513Z,36.28
2019-02-08T08:56:06.913Z,33.85
2019-02-08T08:59:06.525Z,36.75
2019-02-08T09:02:28.748Z,32.78
2019-02-08T09:05:40.546Z,37.50
2019-02-08T09:09:00.008Z,32.05
2019-02-08T09:11:55.540Z,35.55
2019-02-08T09:14:57.664Z,37.93
2019-02-08T09:18:26.031Z,39.58
2019-02-08T09:21:44.817Z,31.77
2019-02-08T09:24:54.647Z,33.15
2019-02-08T09:28:04.375Z,33.70
2019-02-08T09:31:26.782Z,39.67
2019-02-08T09:34:33.428Z,33.55
2019-02-08T09:37:48.646Z,37.28
2019-02-08T09:41:16.237Z,34.63
2019-02-08T09:44:24.178Z,35.85
2019-02-08T09:47:49.901Z,34.08
2019-02-08T09:50:55.383Z,32.10
2019-02-08T09:54:07.379Z,31.30
2019-02-08T09:57:20.339Z,29.92
2019-02-08T10:00:32.162Z,28.15
2019-02-08T10:03:50.519Z,31.15
2019-02-08T10:06:52.465Z,27.90
2019-02-08T10:09:56.459Z,30.90
2019-02-08T10:12:58.693Z,31.77
2019-02-08T10:16:02.107Z,31.23
2019-02-08T10:19:13.520Z,30.30
2019-02-08T10:22:47.829Z,29.02
2019-02-08T10:26:13.109Z,28.07
2019-02-08T10:29:33.237Z,26.12
2019-02-08T10:32:36.909Z,28.90
2019-02-08T10:35:56.085Z,26.57
2019-02-08T10:39:07.189Z,29.35
2019-02-08T10:42:15.096Z,26.80
2019-02-08T10:45:45.960Z,24.87
2019-02-08T10:48:58.400Z,27.55
2019-02-08T10:52:13.159Z,27.58
2019-02-08T10:55:24.052Z,25.43
2019-02-08T10:58:32.453Z,27.50
2019-02-08T11:01:47.861Z,24.67
2019-02-08T11:05:16.201Z,24.15
2019-02-08T11:08:35.480Z,27.80
2019-02-08T11:12:00.462Z,25.97
2019-02-08T11:15:18.647Z,23.62
2019-02-08T11:18:34.243Z,20.50
2019-02-08T11:21:07.357Z,25.25
2019-02-08T11:23:39.678Z,28.17
2019-02-08T11:26:12.060Z,25.52
2019-02-08T11:28:44.388Z,25.45
2019-02-08T11:31:16.719Z,20.50
2019-02-08T11:33:49.016Z,25.72
2019-02-08T11:36:21.600Z,24.23
2019-02-08T11:38:53.993Z,21.82
2019-02-08T11:41:26.389Z,24.75
2019-02-08T11:43:58.705Z,19.07
2019-02-08T11:46:30.981Z,26.87
2019-02-08T11:49:03.260Z,20.57
2019-02-08T11:51:36.446Z,19.05
2019-02-08T11:54:19.464Z,20.82
2019-02-08T11:57:02.269Z,21.85
2019-02-08T11:59:34.693Z,24.92
2019-02-08T12:02:07.890Z,22.15
2019-02-08T12:04:40.486Z,23.10
2019-02-08T12:07:12.762Z,22.10
2019-02-08T12:09:46.082Z,20.48
2019-02-08T12:12:18.336Z,24.87
2019-02-08T12:14:50.613Z,20.43
2019-02-08T12:17:22.892Z,21.57
2019-02-08T12:19:55.175Z,19.73
2019-02-08T12:22:27.499Z,23.18
2019-02-08T12:25:00.215Z,18.87
2019-02-08T12:27:32.608Z,19.70
2019-02-08T12:30:08.161Z,22.25
2019-02-08T12:32:40.518Z,20.32
2019-02-08T12:35:12.782Z,23.22
2019-02-08T12:37:45.141Z,20.97
2019-02-08T12:40:17.410Z,21.48
2019-02-08T12:42:49.778Z,21.80
2019-02-08T12:45:22.254Z,17.95
2019-02-08T12:47:54.627Z,22.30
2019-02-08T12:50:27.210Z,18.55
2019-02-08T12:52:59.544Z,20.15
2019-02-08T12:55:32.022Z,18.85
2019-02-08T12:58:04.282Z,19.37
2019-02-08T13:00:36.786Z,17.85
2019-02-08T13:03:09.081Z,17.10
2019-02-08T13:05:41.698Z,16.97
2019-02-08T13:08:13.943Z,19.17
2019-02-08T13:10:46.191Z,17.67
2019-02-08T13:13:18.479Z,16.10
2019-02-08T13:15:50.782Z,20.10
2019-02-08T13:18:23.042Z,14.30
2019-02-08T13:20:55.269Z,21.87
2019-02-08T13:23:27.604Z,17.35
2019-02-08T13:25:59.832Z,22.65
2019-02-08T13:28:32.658Z,21.37
2019-02-08T13:31:04.989Z,21.65
2019-02-08T13:33:37.344Z,22.10
2019-02-08T13:36:15.140Z,23.80
2019-02-08T13:38:47.404Z,20.12
2019-02-08T13:41:19.741Z,20.90
2019-02-08T13:43:52.073Z,14.45
2019-02-08T13:46:24.366Z,16.65
2019-02-08T13:48:56.686Z,21.07
2019-02-08T13:51:29.114Z,21.50
2019-02-08T13:54:01.366Z,22.35
2019-02-08T13:56:33.750Z,18.85
2019-02-08T13:59:06.172Z,17.12
2019-02-08T14:01:38.509Z,22.05
2019-02-08T14:04:11.780Z,20.20
2019-02-08T14:06:44.195Z,17.20
2019-02-08T14:09:16.470Z,25.97
2019-02-08T14:11:48.748Z,18.32
2019-02-08T14:14:21.049Z,16.67
2019-02-08T14:16:53.353Z,20.85
2019-02-08T14:19:25.694Z,29.52
2019-02-08T14:21:57.990Z,20.02
2019-02-08T14:24:30.472Z,21.02
2019-02-08T14:27:08.431Z,20.43
2019-02-08T14:29:36.843Z,20.52
2019-02-08T14:32:09.220Z,19.27
2019-02-08T14:34:43.728Z,19.67
2019-02-08T14:37:16.053Z,19.12
2019-02-08T14:39:48.592Z,20.70
2019-02-08T14:42:21.058Z,17.48
2019-02-08T14:44:53.461Z,16.93
2019-02-08T14:47:26.048Z,14.90
2019-02-08T14:49:58.491Z,20.02
2019-02-08T14:52:30.854Z,21.57
2019-02-08T14:55:04.797Z,16.90
2019-02-08T14:57:37.548Z,24.18
2019-02-08T15:00:13.159Z,27.25
2019-02-08T15:02:45.763Z,19.95
2019-02-08T15:05:19.035Z,28.10
2019-02-08T15:07:51.711Z,26.85
2019-02-08T15:10:29.590Z,24.85
2019-02-08T15:13:02.968Z,26.42
2019-02-08T15:15:35.390Z,22.98
2019-02-08T15:18:08.346Z,22.82
2019-02-08T15:20:40.704Z,23.02
2019-02-08T15:23:13.080Z,24.37
2019-02-08T15:25:45.521Z,19.70
2019-02-08T15:28:17.803Z,19.90
2019-02-08T15:30:50.365Z,22.13
2019-02-08T15:33:22.740Z,21.25
2019-02-08T15:35:56.917Z,20.37
2019-02-08T15:38:30.083Z,23.83
2019-02-08T15:41:02.578Z,22.70
2019-02-08T15:43:35.033Z,23.73
2019-02-08T15:46:07.877Z,18.30
2019-02-08T15:48:40.297Z,21.02
2019-02-08T15:51:12.641Z,22.80
2019-02-08T15:53:44.894Z,24.37
2019-02-08T15:56:17.941Z,26.52
2019-02-08T15:58:50.590Z,29.57
2019-02-08T16:01:23.287Z,34.75
2019-02-08T16:03:55.781Z,25.70
2019-02-08T16:06:28.135Z,29.70
2019-02-08T16:09:00.554Z,35.20
2019-02-08T16:11:34.415Z,37.20
2019-02-08T16:14:07.009Z,40.90
2019-02-08T16:16:39.379Z,32.10
2019-02-08T16:19:11.789Z,31.50
2019-02-08T16:21:44.229Z,39.88
2019-02-08T16:24:16.606Z,39.70
2019-02-08T16:26:49.146Z,44.85
2019-02-08T16:29:21.488Z,47.05
2019-02-08T16:31:54.118Z,50.48
2019-02-08T16:34:28.026Z,48.80
2019-02-08T16:37:03.629Z,53.85
2019-02-08T16:39:36.187Z,60.65
2019-02-08T16:42:08.652Z,52.95
2019-02-08T16:44:41.089Z,49.80
2019-02-08T16:47:13.950Z,54.25
2019-02-08T16:49:46.706Z,50.58
2019-02-08T16:52:19.018Z,46.48
2019-02-08T16:54:51.475Z,49.40
2019-02-08T16:57:23.802Z,48.08
2019-02-08T16:59:58.251Z,58.42
2019-02-08T17:02:32.544Z,52.95
2019-02-08T17:05:05.620Z,56.98
2019-02-08T17:07:37.982Z,56.18
2019-02-08T17:10:12.651Z,58.73
2019-02-08T17:12:45.040Z,49.25
2019-02-08T17:15:19.837Z,63.52
2019-02-08T17:17:54.840Z,62.25
2019-02-08T17:20:33.568Z,77.27
2019-02-08T17:23:08.971Z,41.35
2019-02-08T17:25:41.238Z,42.27
2019-02-08T17:28:13.700Z,34.95
2019-02-08T17:30:46.289Z,42.93
2019-02-08T17:33:18.729Z,40.85
2019-02-08T17:35:51.080Z,38.53
2019-02-08T17:38:24.152Z,45.28
2019-02-08T17:40:56.729Z,46.98
2019-02-08T17:43:29.248Z,54.15
2019-02-08T17:46:02.517Z,53.92
2019-02-08T17:48:34.947Z,59.03
2019-02-08T17:51:07.467Z,51.88
2019-02-08T17:53:39.956Z,48.35
2019-02-08T17:56:12.345Z,49.60
2019-02-08T17:58:48.119Z,51.88
2019-02-08T18:01:20.742Z,49.90
2019-02-08T18:03:53.140Z,57.00
2019-02-08T18:06:25.531Z,62.17
2019-02-08T18:08:58.121Z,68.07
2019-02-08T18:11:30.701Z,77.75
2019-02-08T18:14:03.121Z,87.85
2019-02-08T18:16:35.890Z,84.47
2019-02-08T18:19:08.820Z,87.40
2019-02-08T18:21:41.274Z,80.83
2019-02-08T18:24:14.644Z,89.90
2019-02-08T18:26:55.316Z,82.42
2019-02-08T18:29:28.029Z,64.87
2019-02-08T18:32:00.817Z,59.23
2019-02-08T18:34:33.465Z,54.38
2019-02-08T18:37:06.133Z,49.05
2019-02-08T18:39:39.969Z,47.38
2019-02-08T18:42:12.474Z,50.45
2019-02-08T18:44:44.843Z,62.65
2019-02-08T18:47:17.187Z,84.10
2019-02-08T18:49:49.766Z,128.27
2019-02-08T18:52:22.110Z,124.00
2019-02-08T18:54:54.408Z,91.63
2019-02-08T18:57:26.931Z,80.87
2019-02-08T18:59:59.259Z,83.75
2019-02-08T19:02:31.837Z,67.05
2019-02-08T19:05:05.173Z,69.13
2019-02-08T19:07:37.488Z,69.67
2019-02-08T19:10:12.508Z,62.10
2019-02-08T19:12:45.329Z,51.53
2019-02-08T19:15:18.756Z,48.00
2019-02-08T19:17:52.302Z,46.80
2019-02-08T19:20:25.023Z,73.20
2019-02-08T19:22:57.461Z,89.15
2019-02-08T19:25:34.926Z,80.42
2019-02-08T19:28:08.411Z,63.83
2019-02-08T19:30:40.854Z,66.92
2019-02-08T19:33:13.229Z,46.70
2019-02-08T19:35:45.614Z,51.80
2019-02-08T19:38:17.952Z,59.23
2019-02-08T19:40:50.317Z,63.60
2019-02-08T19:43:22.684Z,47.90
2019-02-08T19:45:55.293Z,50.07
2019-02-08T19:48:27.553Z,48.42
2019-02-08T19:50:59.941Z,47.55
2019-02-08T19:53:32.332Z,48.20
2019-02-08T19:56:05.112Z,50.63
2019-02-08T19:58:37.651Z,49.70
2019-02-08T20:01:09.951Z,69.43
2019-02-08T20:03:42.345Z,75.70
2019-02-08T20:06:14.767Z,79.45
2019-02-08T20:08:47.659Z,72.30
2019-02-08T20:11:20.026Z,67.73
2019-02-08T20:13:52.289Z,62.83
2019-02-08T20:16:24.594Z,66.47
2019-02-08T20:18:57.042Z,69.03
2019-02-08T20:21:29.467Z,70.57
2019-02-08T20:24:01.769Z,90.90
2019-02-08T20:26:34.092Z,81.97
2019-02-08T20:29:06.403Z,55.97
2019-02-08T20:31:38.683Z,57.60
2019-02-08T20:34:26.595Z,59.38
2019-02-08T20:36:58.973Z,59.43
2019-02-08T20:39:31.371Z,55.88
2019-02-08T20:42:03.785Z,57.07
2019-02-08T20:44:36.206Z,61.48
2019-02-08T20:47:08.518Z,61.30
2019-02-08T20:49:42.330Z,71.80
2019-02-08T20:52:14.647Z,81.77
2019-02-08T20:54:47.120Z,62.13
2019-02-08T20:57:19.351Z,55.33
2019-02-08T20:59:51.749Z,53.30
2019-02-08T21:02:24.300Z,59.50
2019-02-08T21:04:56.642Z,57.07
2019-02-08T21:07:29.026Z,57.37
2019-02-08T21:10:01.991Z,52.90
2019-02-08T21:12:35.661Z,49.30
2019-02-08T21:15:08.207Z,50.35
2019-02-08T21:17:40.528Z,51.98
2019-02-08T21:20:13.319Z,49.77
2019-02-08T21:22:45.796Z,50.05
2019-02-08T21:25:21.640Z,48.70
2019-02-08T21:27:54.068Z,52.17
2019-02-08T21:30:26.558Z,52.65
2019-02-08T21:32:59.033Z,47.37
2019-02-08T21:35:31.370Z,47.90
2019-02-08T21:38:03.794Z,47.17
2019-02-08T21:40:36.518Z,46.53
2019-02-08T21:43:09.529Z,44.23
2019-02-08T21:48:49.763Z,44.20
2019-02-08T21:51:22.112Z,45.20
2019-02-08T21:53:54.451Z,45.40
2019-02-08T21:56:26.926Z,44.23
2019-02-08T21:59:05.947Z,48.27
2019-02-08T22:01:33.533Z,42.37
2019-02-08T22:04:06.036Z,41.70
2019-02-08T22:06:38.479Z,45.90
2019-02-08T22:09:10.898Z,39.10
2019-02-08T22:11:43.981Z,41.90
2019-02-08T22:14:16.363Z,39.10
2019-02-08T22:16:48.694Z,37.27
2019-02-08T22:19:21.018Z,43.83
2019-02-08T22:21:53.336Z,40.00
2019-02-08T22:24:25.605Z,44.20
2019-02-08T22:26:58.014Z,39.97
2019-02-08T22:29:32.901Z,36.87
2019-02-08T22:32:05.365Z,39.18
2019-02-08T22:34:37.743Z,39.58
2019-02-08T22:37:09.993Z,44.43
2019-02-08T22:39:42.370Z,38.10
2019-02-08T22:42:15.255Z,38.08
2019-02-08T22:44:49.092Z,40.50
2019-02-08T22:47:21.415Z,34.50
2019-02-08T22:49:53.766Z,42.20
2019-02-08T22:52:26.135Z,39.00
2019-02-08T22:54:58.479Z,40.93
2019-02-08T22:57:30.708Z,42.58
2019-02-08T23:00:03.021Z,42.43
2019-02-08T23:02:37.228Z,42.63
2019-02-08T23:05:09.622Z,44.33
2019-02-08T23:07:42.018Z,43.78
2019-02-08T23:10:14.407Z,38.80
2019-02-08T23:12:46.710Z,43.42
2019-02-08T23:15:19.081Z,42.20
2019-02-08T23:17:51.481Z,42.70
2019-02-08T23:20:23.857Z,37.33
2019-02-08T23:22:56.280Z,41.10
2019-02-08T23:25:28.755Z,38.77
2019-02-08T23:28:01.197Z,42.10
2019-02-08T23:30:33.636Z,48.87
2019-02-08T23:33:06.120Z,40.03
2019-02-08T23:35:43.047Z,42.90
2019-02-08T23:38:12.535Z,43.93
2019-02-08T23:40:44.904Z,38.50
2019-02-08T23:43:19.589Z,36.93
2019-02-08T23:45:51.919Z,38.17
2019-02-08T23:48:24.305Z,37.97
2019-02-08T23:50:56.673Z,36.73
2019-02-08T23:53:28.963Z,37.05
2019-02-08T23:56:01.368Z,41.58
2019-02-08T23:58:33.704Z,39.50
